createdAt,value
2019-02-05T00:01:37.865Z,22.57
2019-02-05T00:04:07.216Z,21.27
2019-02-05T00:06:36.232Z,25.43
2019-02-05T00:11:44.017Z,23.80
2019-02-05T00:14:12.995Z,21.90
2019-02-05T00:16:42.325Z,23.17
2019-02-05T00:19:11.217Z,23.93
2019-02-05T00:21:40.164Z,22.63
2019-02-05T00:24:09.176Z,26.23
2019-02-05T00:26:38.232Z,24.40
2019-02-05T00:29:07.181Z,27.20
2019-02-05T00:31:36.398Z,26.93
2019-02-05T00:34:05.621Z,26.20
2019-02-05T00:36:34.503Z,26.57
2019-02-05T00:39:05.251Z,24.33
2019-02-05T00:41:34.159Z,25.07
2019-02-05T00:44:03.145Z,26.03
2019-02-05T00:46:32.480Z,24.57
2019-02-05T00:49:01.530Z,23.77
2019-02-05T00:51:30.844Z,25.17
2019-02-05T00:53:59.731Z,26.60
2019-02-05T00:56:28.662Z,25.80
2019-02-05T00:58:57.500Z,28.77
2019-02-05T01:01:26.865Z,25.93
2019-02-05T01:04:08.012Z,27.37
2019-02-05T01:06:37.017Z,26.43
2019-02-05T01:09:09.185Z,28.37
2019-02-05T01:11:38.297Z,30.77
2019-02-05T01:14:07.502Z,30.37
2019-02-05T01:16:36.446Z,30.40
2019-02-05T01:19:06.123Z,29.50
2019-02-05T01:21:34.962Z,30.70
2019-02-05T01:24:04.255Z,31.20
2019-02-05T01:26:34.094Z,30.20
2019-02-05T01:29:04.352Z,31.67
2019-02-05T01:31:33.295Z,29.57
2019-02-05T01:34:02.191Z,31.17
2019-02-05T01:36:31.103Z,28.73
2019-02-05T01:38:59.976Z,31.53
2019-02-05T01:41:28.904Z,29.93
2019-02-05T01:43:57.740Z,34.67
2019-02-05T01:46:26.681Z,34.97
2019-02-05T01:48:55.822Z,34.07
2019-02-05T01:51:24.877Z,33.30
2019-02-05T01:53:53.756Z,31.67
2019-02-05T01:56:22.704Z,33.30
2019-02-05T01:58:51.976Z,33.50
2019-02-05T02:01:20.981Z,28.13
2019-02-05T02:03:49.975Z,30.20
2019-02-05T02:06:18.897Z,32.47
2019-02-05T02:08:48.118Z,29.60
2019-02-05T02:11:17.221Z,31.43
2019-02-05T02:13:46.605Z,33.77
2019-02-05T02:16:15.618Z,35.27
2019-02-05T02:18:44.434Z,34.90
2019-02-05T02:21:13.775Z,33.80
2019-02-05T02:23:42.899Z,32.43
2019-02-05T02:26:12.314Z,32.53
2019-02-05T02:28:41.457Z,35.97
2019-02-05T02:31:10.469Z,37.77
2019-02-05T02:33:39.448Z,34.63
2019-02-05T02:36:08.392Z,34.20
2019-02-05T02:38:37.226Z,38.83
2019-02-05T02:41:06.089Z,32.67
2019-02-05T02:43:35.314Z,38.50
2019-02-05T02:46:04.804Z,36.93
2019-02-05T02:48:33.705Z,32.03
2019-02-05T02:51:02.695Z,40.83
2019-02-05T02:53:31.494Z,37.50
2019-02-05T02:56:00.399Z,38.30
2019-02-05T02:58:29.706Z,37.27
2019-02-05T03:00:58.548Z,34.30
2019-02-05T03:03:27.571Z,36.03
2019-02-05T03:05:56.729Z,34.40
2019-02-05T03:08:25.674Z,39.57
2019-02-05T03:10:54.660Z,39.13
2019-02-05T03:13:23.484Z,42.20
2019-02-05T03:15:52.770Z,39.80
2019-02-05T03:18:21.899Z,40.17
2019-02-05T03:20:50.811Z,38.87
2019-02-05T03:23:19.786Z,41.33
2019-02-05T03:25:48.703Z,41.83
2019-02-05T03:28:17.689Z,42.20
2019-02-05T03:30:46.661Z,41.03
2019-02-05T03:33:15.539Z,44.17
2019-02-05T03:35:44.569Z,38.77
2019-02-05T03:38:13.432Z,45.40
2019-02-05T03:41:08.333Z,43.08
2019-02-05T03:43:38.514Z,39.87
2019-02-05T03:46:09.871Z,47.57
2019-02-05T03:48:40.155Z,41.07
2019-02-05T03:51:49.442Z,42.30
2019-02-05T03:54:47.168Z,42.80
2019-02-05T03:57:56.341Z,48.53
2019-02-05T04:00:48.410Z,43.63
2019-02-05T04:03:59.056Z,43.60
2019-02-05T04:06:50.961Z,42.83
2019-02-05T04:09:47.846Z,42.03
2019-02-05T04:12:42.397Z,49.15
2019-02-05T04:15:37.668Z,47.73
2019-02-05T04:18:31.579Z,50.60
2019-02-05T04:21:53.903Z,46.33
2019-02-05T04:24:53.115Z,50.87
2019-02-05T04:27:45.126Z,50.87
2019-02-05T04:30:42.689Z,45.73
2019-02-05T04:34:06.847Z,42.00
2019-02-05T04:37:08.765Z,46.27
2019-02-05T04:40:14.523Z,47.13
2019-02-05T04:43:09.391Z,45.67
2019-02-05T04:46:18.276Z,41.17
2019-02-05T04:49:30.953Z,43.80
2019-02-05T04:52:18.127Z,45.37
2019-02-05T04:55:05.769Z,45.03
2019-02-05T04:58:12.136Z,40.27
2019-02-05T05:01:08.999Z,41.43
2019-02-05T05:04:01.177Z,42.20
2019-02-05T05:07:09.495Z,41.60
2019-02-05T05:09:50.486Z,42.90
2019-02-05T05:12:19.898Z,45.33
2019-02-05T05:14:49.000Z,46.23
2019-02-05T05:17:18.023Z,51.50
2019-02-05T05:19:47.262Z,42.97
2019-02-05T05:22:17.288Z,42.27
2019-02-05T05:24:46.566Z,50.17
2019-02-05T05:27:17.178Z,42.23
2019-02-05T05:29:46.651Z,46.60
2019-02-05T05:32:16.026Z,40.50
2019-02-05T05:34:45.102Z,39.80
2019-02-05T05:37:12.832Z,41.53
2019-02-05T05:39:41.696Z,40.67
2019-02-05T05:42:10.597Z,45.20
2019-02-05T05:44:39.623Z,40.87
2019-02-05T05:47:08.556Z,46.43
2019-02-05T05:49:37.547Z,44.43
2019-02-05T05:52:06.622Z,39.90
2019-02-05T05:54:36.371Z,43.97
2019-02-05T05:57:05.366Z,42.43
2019-02-05T05:59:34.213Z,43.03
2019-02-05T06:02:03.613Z,42.30
2019-02-05T06:04:32.681Z,40.30
2019-02-05T06:07:01.541Z,45.63
2019-02-05T06:09:30.432Z,41.30
2019-02-05T06:11:59.424Z,39.93
2019-02-05T06:14:28.292Z,38.70
2019-02-05T06:16:57.221Z,44.17
2019-02-05T06:19:26.496Z,43.30
2019-02-05T06:21:55.353Z,40.83
2019-02-05T06:24:24.587Z,44.87
2019-02-05T06:26:53.487Z,36.30
2019-02-05T06:29:23.618Z,46.17
2019-02-05T06:31:52.779Z,40.00
2019-02-05T06:34:22.232Z,38.03
2019-02-05T06:36:51.158Z,42.80
2019-02-05T06:39:19.990Z,39.10
2019-02-05T06:41:49.018Z,40.10
2019-02-05T06:44:17.907Z,43.80
2019-02-05T06:46:46.779Z,44.43
2019-02-05T06:49:15.589Z,43.57
2019-02-05T06:51:44.948Z,36.37
2019-02-05T06:54:13.881Z,45.33
2019-02-05T06:56:42.914Z,40.03
2019-02-05T06:59:11.912Z,40.57
2019-02-05T07:01:40.667Z,40.70
2019-02-05T07:04:09.718Z,41.13
2019-02-05T07:06:38.650Z,43.87
2019-02-05T07:11:50.221Z,43.10
2019-02-05T07:14:19.188Z,38.77
2019-02-05T07:16:48.069Z,42.70
2019-02-05T07:19:16.994Z,38.77
2019-02-05T07:21:46.295Z,41.30
2019-02-05T07:24:15.238Z,38.03
2019-02-05T07:26:44.139Z,40.93
2019-02-05T07:29:13.138Z,40.47
2019-02-05T07:31:42.155Z,42.87
2019-02-05T07:34:11.158Z,41.03
2019-02-05T07:36:40.069Z,42.10
2019-02-05T07:39:09.915Z,43.93
2019-02-05T07:41:38.860Z,44.43
2019-02-05T07:44:07.895Z,48.33
2019-02-05T07:46:36.832Z,47.37
2019-02-05T07:49:06.023Z,44.13
2019-02-05T07:51:34.992Z,47.17
2019-02-05T07:54:04.370Z,52.33
2019-02-05T07:56:33.581Z,47.93
2019-02-05T07:59:09.889Z,47.33
2019-02-05T08:01:33.341Z,43.33
2019-02-05T08:04:02.259Z,49.57
2019-02-05T08:06:31.129Z,52.40
2019-02-05T08:09:00.146Z,48.67
2019-02-05T08:11:29.152Z,49.07
2019-02-05T08:13:58.635Z,51.13
2019-02-05T08:16:27.546Z,45.93
2019-02-05T08:18:56.544Z,45.30
2019-02-05T08:21:25.467Z,48.67
2019-02-05T08:23:54.411Z,49.13
2019-02-05T08:26:23.364Z,51.97
2019-02-05T08:28:52.384Z,51.07
2019-02-05T08:31:21.336Z,57.40
2019-02-05T08:33:50.606Z,50.07
2019-02-05T08:36:19.677Z,44.70
2019-02-05T08:38:48.628Z,47.03
2019-02-05T08:41:17.535Z,45.97
2019-02-05T08:43:46.442Z,38.73
2019-02-05T08:46:15.446Z,42.67
2019-02-05T08:48:44.405Z,35.43
2019-02-05T08:51:13.772Z,36.47
2019-02-05T08:53:42.708Z,36.73
2019-02-05T08:56:11.700Z,37.70
2019-02-05T08:58:40.784Z,33.63
2019-02-05T09:01:09.782Z,32.10
2019-02-05T09:03:38.701Z,31.17
2019-02-05T09:06:07.813Z,28.23
2019-02-05T09:08:37.152Z,33.60
2019-02-05T09:11:06.341Z,29.83
2019-02-05T09:13:35.289Z,30.03
2019-02-05T09:16:04.323Z,29.87
2019-02-05T09:18:33.363Z,30.97
2019-02-05T09:21:02.461Z,27.90
2019-02-05T09:23:31.391Z,32.40
2019-02-05T09:26:00.489Z,29.03
2019-02-05T09:28:29.476Z,32.70
2019-02-05T09:30:58.359Z,32.17
2019-02-05T09:33:27.381Z,34.50
2019-02-05T09:35:56.513Z,29.07
2019-02-05T09:38:25.447Z,28.37
2019-02-05T09:40:54.606Z,32.83
2019-02-05T09:43:23.495Z,34.03
2019-02-05T09:45:52.477Z,32.00
2019-02-05T09:48:21.412Z,28.63
2019-02-05T09:50:50.362Z,31.63
2019-02-05T09:53:19.356Z,30.30
2019-02-05T09:55:48.317Z,29.47
2019-02-05T09:58:18.923Z,26.83
2019-02-05T10:00:47.982Z,27.53
2019-02-05T10:03:16.840Z,31.20
2019-02-05T10:05:45.845Z,28.97
2019-02-05T10:08:14.782Z,29.33
2019-02-05T10:10:43.707Z,26.37
2019-02-05T10:13:12.848Z,27.77
2019-02-05T10:15:42.747Z,29.83
2019-02-05T10:18:12.765Z,31.80
2019-02-05T10:20:42.251Z,29.00
2019-02-05T10:23:11.323Z,34.67
2019-02-05T10:25:40.568Z,29.97
2019-02-05T10:28:09.589Z,31.53
2019-02-05T10:30:40.996Z,37.03
2019-02-05T10:33:10.620Z,27.83
2019-02-05T10:35:39.806Z,28.93
2019-02-05T10:38:08.845Z,32.40
2019-02-05T10:40:38.013Z,34.00
2019-02-05T10:43:07.777Z,32.60
2019-02-05T10:45:37.257Z,29.20
2019-02-05T10:48:08.629Z,27.80
2019-02-05T10:50:37.783Z,29.87
2019-02-05T10:53:06.984Z,30.83
2019-02-05T10:55:35.986Z,31.60
2019-02-05T10:58:06.217Z,32.20
2019-02-05T11:00:35.481Z,31.37
2019-02-05T11:03:06.231Z,30.23
2019-02-05T11:05:35.312Z,32.23
2019-02-05T11:08:04.588Z,28.60
2019-02-05T11:10:33.612Z,29.57
2019-02-05T11:13:02.576Z,33.30
2019-02-05T11:15:32.456Z,31.77
2019-02-05T11:18:01.948Z,33.73
2019-02-05T11:20:31.786Z,33.57
2019-02-05T11:23:00.785Z,31.13
2019-02-05T11:25:29.817Z,36.07
2019-02-05T11:27:58.794Z,32.73
2019-02-05T11:30:30.637Z,37.07
2019-02-05T11:32:59.535Z,38.23
2019-02-05T11:35:29.139Z,35.37
2019-02-05T11:37:58.145Z,41.67
2019-02-05T11:40:30.219Z,36.03
2019-02-05T11:42:59.229Z,39.30
2019-02-05T11:45:28.792Z,36.20
2019-02-05T11:47:58.711Z,37.67
2019-02-05T11:50:27.719Z,38.53
2019-02-05T11:52:57.187Z,36.00
2019-02-05T11:55:27.429Z,34.90
2019-02-05T11:57:56.484Z,34.37
2019-02-05T12:00:32.954Z,32.70
2019-02-05T12:03:01.855Z,36.57
2019-02-05T12:05:30.949Z,35.67
2019-02-05T12:08:00.303Z,34.67
2019-02-05T12:10:29.379Z,32.37
2019-02-05T12:12:58.202Z,38.73
2019-02-05T12:15:27.246Z,31.40
2019-02-05T12:17:56.532Z,35.27
2019-02-05T12:20:25.661Z,33.00
2019-02-05T12:22:54.677Z,29.23
2019-02-05T12:25:24.273Z,28.97
2019-02-05T12:27:53.273Z,28.87
2019-02-05T12:30:24.966Z,27.67
2019-02-05T12:32:54.183Z,34.10
2019-02-05T12:35:23.208Z,26.90
2019-02-05T12:37:52.208Z,30.50
2019-02-05T12:40:21.534Z,31.33
2019-02-05T12:42:50.650Z,34.23
2019-02-05T12:45:22.113Z,28.87
2019-02-05T12:47:51.201Z,28.20
2019-02-05T12:50:22.376Z,30.30
2019-02-05T12:52:51.595Z,38.87
2019-02-05T12:55:21.569Z,33.87
2019-02-05T12:57:50.580Z,32.03
2019-02-05T13:00:27.917Z,31.60
2019-02-05T13:02:56.839Z,33.43
2019-02-05T13:05:26.198Z,31.57
2019-02-05T13:07:55.483Z,36.57
2019-02-05T13:10:27.224Z,32.85
2019-02-05T13:12:56.152Z,33.47
2019-02-05T13:15:25.285Z,34.60
2019-02-05T13:17:54.392Z,34.80
2019-02-05T13:20:25.703Z,39.73
2019-02-05T13:22:55.775Z,41.67
2019-02-05T13:25:26.257Z,37.83
2019-02-05T13:27:55.271Z,42.13
2019-02-05T13:30:26.377Z,39.10
2019-02-05T13:32:55.418Z,37.60
2019-02-05T13:35:25.031Z,32.60
2019-02-05T13:37:54.433Z,32.97
2019-02-05T13:40:24.953Z,34.83
2019-02-05T13:42:55.346Z,36.43
2019-02-05T13:45:30.603Z,32.30
2019-02-05T13:47:59.856Z,35.83
2019-02-05T13:50:33.420Z,35.37
2019-02-05T13:53:03.000Z,31.37
2019-02-05T13:55:34.460Z,34.27
2019-02-05T13:58:03.865Z,37.00
2019-02-05T14:00:38.125Z,34.53
2019-02-05T14:03:08.770Z,34.50
2019-02-05T14:05:38.497Z,34.73
2019-02-05T14:08:08.082Z,40.90
2019-02-05T14:10:37.999Z,34.23
2019-02-05T14:13:07.447Z,40.97
2019-02-05T14:15:38.344Z,41.63
2019-02-05T14:18:08.271Z,39.30
2019-02-05T14:20:37.802Z,38.70
2019-02-05T14:23:06.885Z,40.57
2019-02-05T14:25:35.892Z,42.57
2019-02-05T14:28:05.425Z,41.00
2019-02-05T14:30:42.969Z,41.23
2019-02-05T14:33:11.979Z,42.23
2019-02-05T14:35:40.904Z,41.83
2019-02-05T14:38:10.717Z,41.40
2019-02-05T14:40:39.804Z,44.33
2019-02-05T14:43:09.105Z,42.50
2019-02-05T14:45:38.766Z,40.50
2019-02-05T14:48:08.673Z,37.73
2019-02-05T14:50:38.373Z,35.80
2019-02-05T14:53:08.229Z,36.80
2019-02-05T14:55:37.714Z,36.73
2019-02-05T14:58:08.946Z,34.03
2019-02-05T15:00:38.686Z,36.43
2019-02-05T15:03:09.333Z,38.67
2019-02-05T15:05:39.234Z,36.53
2019-02-05T15:08:08.891Z,35.40
2019-02-05T15:10:38.096Z,36.73
2019-02-05T15:13:07.726Z,36.37
2019-02-05T15:15:36.798Z,35.27
2019-02-05T15:18:08.057Z,32.67
2019-02-05T15:20:42.270Z,31.50
2019-02-05T15:23:11.954Z,38.67
2019-02-05T15:25:41.146Z,36.07
2019-02-05T15:28:10.508Z,32.27
2019-02-05T15:30:42.038Z,36.07
2019-02-05T15:33:34.847Z,31.20
2019-02-05T15:36:11.015Z,32.97
2019-02-05T15:38:39.867Z,34.13
2019-02-05T15:41:08.850Z,34.60
2019-02-05T15:43:38.148Z,35.00
2019-02-05T15:46:07.061Z,34.50
2019-02-05T15:48:36.033Z,31.97
2019-02-05T15:51:05.645Z,31.60
2019-02-05T15:53:34.673Z,33.37
2019-02-05T15:56:04.025Z,34.50
2019-02-05T15:58:33.095Z,32.90
2019-02-05T16:01:02.189Z,31.70
2019-02-05T16:03:31.209Z,35.43
2019-02-05T16:06:00.605Z,33.37
2019-02-05T16:08:30.851Z,35.47
2019-02-05T16:10:59.881Z,36.83
2019-02-05T16:13:28.867Z,33.07
2019-02-05T16:15:57.808Z,32.07
2019-02-05T16:18:26.735Z,33.33
2019-02-05T16:20:56.278Z,29.47
2019-02-05T16:23:25.330Z,31.20
2019-02-05T16:25:58.303Z,30.27
2019-02-05T16:28:27.169Z,30.70
2019-02-05T16:30:56.501Z,29.70
2019-02-05T16:33:27.272Z,31.23
2019-02-05T16:35:56.543Z,30.12
2019-02-05T16:38:25.679Z,30.73
2019-02-05T16:40:54.722Z,30.70
2019-02-05T16:43:24.087Z,30.17
2019-02-05T16:45:53.315Z,31.53
2019-02-05T16:48:22.231Z,32.13
2019-02-05T16:50:51.406Z,32.47
2019-02-05T16:53:20.624Z,30.43
2019-02-05T16:55:49.711Z,30.23
2019-02-05T16:58:18.646Z,34.33
2019-02-05T17:00:47.718Z,32.00
2019-02-05T17:03:17.853Z,33.53
2019-02-05T17:05:47.008Z,31.73
2019-02-05T17:08:16.051Z,31.20
2019-02-05T17:10:45.085Z,35.40
2019-02-05T17:13:14.222Z,37.57
2019-02-05T17:15:43.303Z,34.33
2019-02-05T17:18:22.938Z,39.93
2019-02-05T17:20:42.911Z,39.23
2019-02-05T17:23:11.875Z,35.33
2019-02-05T17:25:40.930Z,37.80
2019-02-05T17:28:10.032Z,36.63
2019-02-05T17:30:39.749Z,43.00
2019-02-05T17:33:08.973Z,39.20
2019-02-05T17:35:38.494Z,40.13
2019-02-05T17:38:08.916Z,42.50
2019-02-05T17:40:38.291Z,41.60
2019-02-05T17:43:07.847Z,40.53
2019-02-05T17:45:38.929Z,44.60
2019-02-05T17:48:10.443Z,42.27
2019-02-05T17:50:39.320Z,42.27
2019-02-05T17:53:08.314Z,41.43
2019-02-05T17:55:37.556Z,40.13
2019-02-05T17:58:06.710Z,46.90
2019-02-05T18:00:53.964Z,42.67
2019-02-05T18:03:23.163Z,41.20
2019-02-05T18:05:52.127Z,44.87
2019-02-05T18:08:21.291Z,48.50
2019-02-05T18:10:50.374Z,45.73
2019-02-05T18:13:19.366Z,55.57
2019-02-05T18:15:48.260Z,48.68
2019-02-05T18:18:17.596Z,51.97
2019-02-05T18:20:46.974Z,54.47
2019-02-05T18:23:15.946Z,50.03
2019-02-05T18:25:44.923Z,48.63
2019-02-05T18:28:13.972Z,62.37
2019-02-05T18:30:42.924Z,54.80
2019-02-05T18:33:12.243Z,54.67
2019-02-05T18:35:41.305Z,52.90
2019-02-05T18:38:12.542Z,66.23
2019-02-05T18:40:41.755Z,62.50
2019-02-05T18:43:10.805Z,54.97
2019-02-05T18:45:39.947Z,62.57
2019-02-05T18:48:09.544Z,60.30
2019-02-05T18:50:38.651Z,66.23
2019-02-05T18:53:07.693Z,62.93
2019-02-05T18:55:37.082Z,55.27
2019-02-05T18:58:09.469Z,54.43
2019-02-05T19:00:39.658Z,60.83
2019-02-05T19:03:15.378Z,59.20
2019-02-05T19:05:40.361Z,53.57
2019-02-05T19:08:10.052Z,69.03
2019-02-05T19:10:39.163Z,53.80
2019-02-05T19:13:08.423Z,56.87
2019-02-05T19:15:37.981Z,49.27
2019-02-05T19:18:08.304Z,53.57
2019-02-05T19:20:37.306Z,47.10
2019-02-05T19:23:08.109Z,44.73
2019-02-05T19:25:58.898Z,52.37
2019-02-05T19:28:30.293Z,48.17
2019-02-05T19:31:03.351Z,59.10
2019-02-05T19:33:32.194Z,51.13
2019-02-05T19:36:01.196Z,59.97
2019-02-05T19:38:30.309Z,57.97
2019-02-05T19:40:59.384Z,46.53
2019-02-05T19:43:28.325Z,49.67
2019-02-05T19:46:04.683Z,44.42
2019-02-05T19:48:38.515Z,52.87
2019-02-05T19:51:07.537Z,45.37
2019-02-05T19:53:36.574Z,44.83
2019-02-05T19:56:06.312Z,45.20
2019-02-05T19:58:35.759Z,44.03
2019-02-05T20:01:05.387Z,42.10
2019-02-05T20:03:38.868Z,40.53
2019-02-05T20:06:05.409Z,39.20
2019-02-05T20:08:34.603Z,41.63
2019-02-05T20:11:03.540Z,37.90
2019-02-05T20:13:39.914Z,41.77
2019-02-05T20:16:03.295Z,38.73
2019-02-05T20:18:32.271Z,39.70
2019-02-05T20:21:01.222Z,38.40
2019-02-05T20:23:30.166Z,37.93
2019-02-05T20:25:59.142Z,37.10
2019-02-05T20:28:28.065Z,40.53
2019-02-05T20:30:57.451Z,35.53
2019-02-05T20:33:26.340Z,32.93
2019-02-05T20:35:55.339Z,34.53
2019-02-05T20:41:11.201Z,31.80
2019-02-05T20:43:40.506Z,31.83
2019-02-05T20:46:09.611Z,28.30
2019-02-05T20:48:38.923Z,30.53
2019-02-05T20:51:08.045Z,28.90
2019-02-05T20:53:36.959Z,28.57
2019-02-05T20:56:06.370Z,29.77
2019-02-05T20:58:35.275Z,27.97
2019-02-05T21:01:04.829Z,29.70
2019-02-05T21:03:33.930Z,30.77
2019-02-05T21:06:03.013Z,27.53
2019-02-05T21:08:32.049Z,27.23
2019-02-05T21:11:00.989Z,27.27
2019-02-05T21:13:30.003Z,27.37
2019-02-05T21:16:02.104Z,25.53
2019-02-05T21:18:31.152Z,27.17
2019-02-05T21:21:00.283Z,29.83
2019-02-05T21:23:29.208Z,27.67
2019-02-05T21:25:58.229Z,29.90
2019-02-05T21:28:27.203Z,29.07
2019-02-05T21:30:56.157Z,29.53
2019-02-05T21:33:25.374Z,31.63
2019-02-05T21:35:54.421Z,34.08
2019-02-05T21:38:23.506Z,31.90
2019-02-05T21:40:52.452Z,26.90
2019-02-05T21:43:21.417Z,31.93
2019-02-05T21:45:50.488Z,29.47
2019-02-05T21:48:19.835Z,27.50
2019-02-05T21:50:48.849Z,29.80
2019-02-05T21:53:17.845Z,29.33
2019-02-05T21:55:46.947Z,29.33
2019-02-05T21:58:16.002Z,29.70
2019-02-05T22:00:45.230Z,29.57
2019-02-05T22:03:14.147Z,26.97
2019-02-05T22:05:43.704Z,30.27
2019-02-05T22:08:12.697Z,27.23
2019-02-05T22:10:41.642Z,28.93
2019-02-05T22:13:10.673Z,29.47
2019-02-05T22:15:39.666Z,26.73
2019-02-05T22:18:08.711Z,25.37
2019-02-05T22:20:37.753Z,26.13
2019-02-05T22:23:07.067Z,28.40
2019-02-05T22:25:35.988Z,29.00
2019-02-05T22:28:05.728Z,26.53
2019-02-05T22:30:35.314Z,25.87
2019-02-05T22:33:04.947Z,25.37
2019-02-05T22:35:33.971Z,25.03
2019-02-05T22:38:02.964Z,27.80
2019-02-05T22:40:32.186Z,25.60
2019-02-05T22:45:50.502Z,24.57
2019-02-05T22:48:19.537Z,24.67
2019-02-05T22:50:48.578Z,24.33
2019-02-05T22:53:17.500Z,26.30
2019-02-05T22:55:46.637Z,25.80
2019-02-05T22:58:15.741Z,23.53
2019-02-05T23:01:24.940Z,21.57
2019-02-05T23:04:18.634Z,20.07
2019-02-05T23:07:02.397Z,19.60
2019-02-05T23:09:48.251Z,20.73
2019-02-05T23:12:30.045Z,19.23
2019-02-05T23:15:03.610Z,18.70
2019-02-05T23:17:32.651Z,19.17
2019-02-05T23:20:01.616Z,18.10
2019-02-05T23:22:30.428Z,17.10
2019-02-05T23:24:59.288Z,17.93
2019-02-05T23:27:28.530Z,15.50
2019-02-05T23:29:57.455Z,16.27
2019-02-05T23:32:26.268Z,15.47
2019-02-05T23:35:02.103Z,15.10
2019-02-05T23:37:25.712Z,13.50
2019-02-05T23:39:54.767Z,14.80
2019-02-05T23:42:24.184Z,14.30
2019-02-05T23:44:52.990Z,13.27
2019-02-05T23:47:21.858Z,14.57
2019-02-05T23:49:51.678Z,14.40
2019-02-05T23:52:20.809Z,12.77
2019-02-05T23:54:49.764Z,12.73
2019-02-05T23:57:19.028Z,13.10
2019-02-05T23:59:48.209Z,10.90
